Time;durP1;ratioP1;P1;durP2;ratioP2;P2;SDS_P1;SDS_P2;PMS_P1;PMS_P2;Temp;Humidity;BMP_temperature;BMP_pressure;BME280_temperature;BME280_humidity;BME280_pressure;Samples;Min_cycle;Max_cycle;Signal;HPM_P1;HPM_P2
2022/06/20 00:02:21;;;;;;;3.37;2.50;;;;;;;24.53;47.98;100761.06;1688997;85;21067;-78
2022/06/20 00:04:49;;;;;;;3.05;2.20;;;;;;;24.52;47.97;100759.45;1707073;82;21588;-78
2022/06/20 00:07:16;;;;;;;3.20;2.15;;;;;;;24.55;47.95;100759.33;1717489;82;21788;-79
2022/06/20 00:09:42;;;;;;;3.42;2.60;;;;;;;24.54;47.98;100752.14;1700539;83;21035;-78
2022/06/20 00:12:12;;;;;;;3.10;2.30;;;;;;;24.53;47.99;100749.12;1688836;84;21561;-78
2022/06/20 00:14:38;;;;;;;4.28;2.58;;;;;;;24.53;47.98;100740.20;1698539;82;21099;-78
2022/06/20 00:17:11;;;;;;;3.83;2.30;;;;;;;24.54;47.96;100743.80;1685632;84;21074;-78
2022/06/20 00:19:39;;;;;;;4.00;2.42;;;;;;;24.53;47.98;100742.98;1702024;81;21286;-78
2022/06/20 00:22:06;;;;;;;3.08;2.37;;;;;;;24.53;47.98;100740.20;1690499;83;21039;-78
2022/06/20 00:24:32;;;;;;;3.33;2.58;;;;;;;24.53;47.96;100739.38;1692359;83;21234;-78
2022/06/20 00:26:59;;;;;;;2.95;2.30;;;;;;;24.52;47.96;100733.03;1714317;82;21036;-78
2022/06/20 00:29:28;;;;;;;3.80;2.65;;;;;;;24.53;47.96;100731.04;1708426;83;21433;-78
2022/06/20 00:31:54;;;;;;;2.85;2.08;;;;;;;24.53;47.98;100736.03;1717890;82;21325;-78
2022/06/20 00:34:20;;;;;;;3.58;2.65;;;;;;;24.53;47.99;100728.26;1714639;82;21060;-78
2022/06/20 00:36:48;;;;;;;4.20;2.40;;;;;;;24.53;47.95;100724.09;1704312;81;21575;-78
2022/06/20 00:39:15;;;;;;;3.55;2.35;;;;;;;24.53;47.96;100721.30;1688659;82;21062;-78
2022/06/20 00:41:41;;;;;;;3.58;2.37;;;;;;;24.53;47.95;100718.52;1741923;80;21082;-79
2022/06/20 00:44:15;;;;;;;4.28;2.42;;;;;;;24.52;47.94;100717.73;1669254;83;21135;-78
2022/06/20 00:46:51;;;;;;;3.35;2.33;;;;;;;24.53;47.95;100718.52;1703930;83;21456;-80
2022/06/20 00:49:22;;;;;;;3.52;2.75;;;;;;;24.53;47.95;100715.73;1705751;83;21024;-77
2022/06/20 00:52:04;;;;;;;;;;;;;;;24.52;47.95;100716.34;1705131;83;21071;-78
2022/06/20 00:54:38;;;;;;;3.85;2.20;;;;;;;24.51;47.94;100716.69;1705964;83;20205;-79
2022/06/20 00:57:12;;;;;;;3.15;2.33;;;;;;;24.50;47.95;100716.44;1699836;83;21059;-77
2022/06/20 00:59:46;;;;;;;3.90;2.55;;;;;;;24.50;47.95;100716.44;1709303;83;21411;-78
2022/06/20 01:02:16;;;;;;;4.15;2.85;;;;;;;24.50;47.94;100708.09;1698719;81;21899;-77
2022/06/20 01:04:59;;;;;;;3.42;2.47;;;;;;;24.49;47.94;100702.30;1709698;81;21031;-77
2022/06/20 01:07:39;;;;;;;3.05;2.30;;;;;;;24.49;47.95;100703.11;1696362;83;21079;-77
2022/06/20 01:10:07;;;;;;;3.98;2.25;;;;;;;24.49;47.95;100706.47;1700587;81;21140;-78
2022/06/20 01:12:37;;;;;;;3.37;2.02;;;;;;;24.49;47.96;100705.08;1706930;81;21099;-78
2022/06/20 01:15:18;;;;;;;4.47;2.77;;;;;;;24.49;47.95;100702.30;1714270;81;21442;-77
2022/06/20 01:17:44;;;;;;;3.72;2.45;;;;;;;24.48;47.94;100695.95;1710013;81;21083;-77
2022/06/20 01:20:32;;;;;;;4.25;2.50;;;;;;;24.49;47.95;100705.08;1709599;83;21055;-78
2022/06/20 01:23:27;;;;;;;4.22;2.60;;;;;;;24.48;47.96;100702.91;1704850;82;21287;-78
2022/06/20 01:26:11;;;;;;;4.10;2.70;;;;;;;24.47;47.93;100695.71;1718666;83;21047;-78
2022/06/20 01:28:40;;;;;;;3.50;2.42;;;;;;;24.46;47.91;100691.30;1716835;83;21035;-77
2022/06/20 01:31:08;;;;;;;4.17;2.67;;;;;;;24.47;47.92;100700.45;1701352;83;21177;-77
2022/06/20 01:33:34;;;;;;;3.40;2.55;;;;;;;24.46;47.92;100706.59;1688619;83;21584;-78
2022/06/20 01:38:46;;;;;;;3.80;2.47;;;;;;;24.47;47.92;100699.88;1709039;83;21036;-77
2022/06/20 01:44:00;;;;;;;3.10;2.47;;;;;;;24.47;47.89;100701.84;1711993;81;21036;-78
2022/06/20 01:46:29;;;;;;;3.90;2.50;;;;;;;24.46;47.90;100695.47;1697613;83;21035;-78
2022/06/20 01:48:59;;;;;;;3.27;2.42;;;;;;;24.46;47.89;100698.25;1706092;81;21071;-78
2022/06/20 01:51:37;;;;;;;3.12;2.40;;;;;;;24.47;47.89;100696.28;1724015;82;21665;-78
2022/06/20 01:54:04;;;;;;;2.85;2.22;;;;;;;24.47;47.90;100694.89;1731601;81;21083;-79
2022/06/20 01:56:30;;;;;;;5.00;2.70;;;;;;;24.46;47.86;100689.91;1709419;83;20992;-78
2022/06/20 01:59:01;;;;;;;4.00;2.62;;;;;;;24.47;47.86;100692.93;1710778;83;21090;-78
2022/06/20 02:01:29;;;;;;;3.80;2.37;;;;;;;24.45;47.86;100696.62;1697736;83;21040;-78
2022/06/20 02:03:55;;;;;;;4.58;2.60;;;;;;;24.47;47.84;100687.36;1700808;83;21664;-78
2022/06/20 02:06:22;;;;;;;4.35;2.75;;;;;;;24.47;47.83;100699.06;1722546;81;21055;-79
2022/06/20 02:08:53;;;;;;;6.55;2.72;;;;;;;24.47;47.83;100695.71;1717131;80;21075;-78
2022/06/20 02:11:26;;;;;;;4.83;2.55;;;;;;;24.47;47.83;100701.27;1669031;83;21083;-78
2022/06/20 02:13:58;;;;;;;7.08;3.00;;;;;;;24.46;47.81;100698.25;1702239;81;21214;-78
2022/06/20 02:16:24;;;;;;;3.52;2.90;;;;;;;24.47;47.79;100697.10;1712652;81;21027;-78
2022/06/20 02:18:52;;;;;;;5.80;2.55;;;;;;;24.46;47.80;100699.64;1713580;81;21047;-77
2022/06/20 02:21:24;;;;;;;3.60;2.40;;;;;;;24.47;47.79;100700.45;1720943;81;21629;-79
2022/06/20 02:23:55;;;;;;;4.50;2.40;;;;;;;24.47;47.79;100703.23;1713807;81;21046;-78
2022/06/20 02:26:22;;;;;;;4.30;2.37;;;;;;;24.47;47.78;100706.02;1721537;82;21114;-79
2022/06/20 02:29:05;;;;;;;3.10;2.20;;;;;;;24.46;47.78;100700.22;1724266;80;21020;-78
2022/06/20 02:31:32;;;;;;;5.08;2.65;;;;;;;24.47;47.76;100699.06;1709244;83;21020;-78
2022/06/20 02:33:58;;;;;;;4.42;2.70;;;;;;;24.46;47.76;100705.20;1710204;81;21040;-78
2022/06/20 02:36:25;;;;;;;5.17;2.40;;;;;;;24.47;47.73;100705.44;1700477;83;21130;-78
2022/06/20 02:38:52;;;;;;;4.83;2.70;;;;;;;24.47;47.75;100703.23;1670989;83;21182;-78
2022/06/20 02:41:21;;;;;;;3.90;2.52;;;;;;;24.46;47.72;100699.64;1696546;83;21015;-78
2022/06/20 02:43:58;;;;;;;3.77;2.70;;;;;;;24.46;47.72;100706.59;1705603;81;20983;-79
2022/06/20 02:46:27;;;;;;;3.65;2.52;;;;;;;24.46;47.71;100709.95;1721121;81;21034;-78
2022/06/20 02:48:54;;;;;;;3.65;2.40;;;;;;;24.46;47.72;100720.50;1717025;82;21110;-78
2022/06/20 02:51:25;;;;;;;3.98;2.50;;;;;;;24.46;47.71;100715.52;1694014;81;21118;-78
2022/06/20 02:53:58;;;;;;;4.08;2.58;;;;;;;24.46;47.72;100719.11;1721718;81;21150;-79
2022/06/20 02:56:27;;;;;;;4.72;2.72;;;;;;;24.45;47.73;100711.91;1721682;83;21297;-78
2022/06/20 02:59:00;;;;;;;3.95;2.33;;;;;;;24.45;47.73;100709.14;1710338;83;21099;-78
2022/06/20 03:01:44;;;;;;;3.98;2.67;;;;;;;24.46;47.72;100708.56;1696855;84;21095;-78
2022/06/20 03:04:16;;;;;;;5.95;2.47;;;;;;;24.45;47.71;100712.48;1705327;81;21140;-78
2022/06/20 03:06:50;;;;;;;3.95;2.60;;;;;;;24.45;47.71;100716.09;1692671;83;21039;-78
2022/06/20 03:09:20;;;;;;;4.08;2.20;;;;;;;24.44;47.72;100717.23;1716201;81;20924;-78
2022/06/20 03:11:47;;;;;;;3.93;2.63;;;;;;;24.44;47.71;100710.28;1699967;81;21044;-78
2022/06/20 03:14:15;;;;;;;5.75;2.25;;;;;;;24.45;47.70;100708.31;1710563;83;21098;-79
2022/06/20 03:16:41;;;;;;;3.60;2.42;;;;;;;24.44;47.71;100709.50;1698930;81;21051;-81
2022/06/20 03:19:26;;;;;;;4.53;2.50;;;;;;;24.44;47.71;100708.89;1711447;83;21501;-78
2022/06/20 03:21:53;;;;;;;4.62;2.62;;;;;;;24.43;47.72;100704.52;1699460;83;21051;-79
2022/06/20 03:24:21;;;;;;;6.33;2.80;;;;;;;24.45;47.68;100708.31;1709806;81;21553;-78
2022/06/20 03:26:48;;;;;;;5.42;2.80;;;;;;;24.44;47.68;100706.72;1699430;83;21043;-78
2022/06/20 03:29:15;;;;;;;4.65;2.72;;;;;;;24.44;47.65;100701.16;1710553;83;21158;-78
2022/06/20 03:31:42;;;;;;;3.08;2.40;;;;;;;24.45;47.66;100706.92;1697715;83;21524;-80
2022/06/20 03:34:10;;;;;;;4.28;2.83;;;;;;;24.45;47.65;100704.15;1712586;81;21024;-78
2022/06/20 03:36:36;;;;;;;3.45;2.62;;;;;;;24.44;47.66;100699.77;1644031;82;21098;-79
2022/06/20 03:39:04;;;;;;;4.65;2.45;;;;;;;24.44;47.66;100696.98;1695827;82;21039;-79
2022/06/20 03:41:31;;;;;;;4.17;3.00;;;;;;;24.44;47.66;100699.16;1710809;82;21096;-79
2022/06/20 03:44:18;;;;;;;4.60;2.72;;;;;;;24.45;47.66;100701.37;1701119;83;21028;-78
2022/06/20 03:47:07;;;;;;;5.33;2.45;;;;;;;24.44;47.64;100692.20;1695640;82;21094;-80
2022/06/20 03:49:54;;;;;;;4.92;2.50;;;;;;;24.44;47.64;100690.81;1701385;82;21031;-77
2022/06/20 03:52:24;;;;;;;4.80;2.60;;;;;;;24.44;47.61;100685.86;1687772;82;21103;-77
2022/06/20 03:55:01;;;;;;;3.98;2.50;;;;;;;24.43;47.61;100679.48;1701445;83;22065;-77
2022/06/20 03:57:39;;;;;;;3.47;2.52;;;;;;;24.43;47.64;100682.27;1688704;84;21112;-77
2022/06/20 04:00:14;;;;;;;4.65;2.37;;;;;;;24.43;47.64;100680.06;1704419;82;21593;-78
2022/06/20 04:02:51;;;;;;;4.28;2.35;;;;;;;24.43;47.65;100686.44;1694492;82;21092;-78
2022/06/20 04:05:28;;;;;;;3.70;2.55;;;;;;;24.43;47.64;100687.83;1698275;83;21585;-78
2022/06/20 04:08:00;;;;;;;5.37;2.60;;;;;;;24.43;47.64;100687.83;1696734;81;21284;-78
2022/06/20 04:11:03;;;;;;;3.62;2.55;;;;;;;24.42;47.62;100684.80;1696360;82;21068;-77
2022/06/20 04:13:54;;;;;;;4.33;2.35;;;;;;;24.43;47.64;100679.48;1703532;82;21060;-80
2022/06/20 04:16:46;;;;;;;3.05;2.25;;;;;;;24.43;47.64;100678.67;1687590;83;20953;-79
2022/06/20 04:19:17;;;;;;;4.58;1.98;;;;;;;24.42;47.63;100680.64;1704670;82;21017;-78
2022/06/20 04:21:57;;;;;;;8.43;2.47;;;;;;;24.42;47.65;100682.03;1688478;84;22165;-78
2022/06/20 04:24:31;;;;;;;3.87;2.08;;;;;;;24.43;47.66;100687.02;1697666;82;21091;-78
2022/06/20 04:27:16;;;;;;;5.85;2.50;;;;;;;24.41;47.68;100684.56;1713815;82;21190;-78
2022/06/20 04:29:56;;;;;;;3.40;2.37;;;;;;;24.42;47.68;100685.38;1700051;82;21068;-77
2022/06/20 04:32:39;;;;;;;3.95;2.50;;;;;;;24.42;47.68;100683.41;1717650;82;21052;-77
2022/06/20 04:35:24;;;;;;;5.15;2.40;;;;;;;24.38;47.69;100682.48;1709735;83;21589;-77
2022/06/20 04:37:58;;;;;;;7.08;2.52;;;;;;;24.30;47.73;100686.77;1698584;81;21526;-77
2022/06/20 04:40:37;;;;;;;4.62;2.60;;;;;;;24.27;47.84;100693.02;1703624;83;21112;-77
2022/06/20 04:43:18;;;;;;;3.77;2.70;;;;;;;24.24;47.89;100689.52;1682541;83;21198;-77
2022/06/20 04:46:16;;;;;;;8.85;2.85;;;;;;;24.20;47.88;100692.19;1719524;82;21024;-78
2022/06/20 04:48:46;;;;;;;3.85;2.65;;;;;;;24.18;47.88;100693.12;1703899;83;21134;-78
2022/06/20 04:51:17;;;;;;;11.63;3.12;;;;;;;24.17;47.87;100690.67;1715762;83;20990;-78
2022/06/20 04:53:49;;;;;;;5.83;2.58;;;;;;;24.13;47.85;100689.14;1711440;81;21489;-77
2022/06/20 04:56:22;;;;;;;7.12;2.92;;;;;;;24.10;47.89;100682.89;1752640;81;21087;-78
2022/06/20 04:58:55;;;;;;;7.42;2.25;;;;;;;24.07;47.90;100676.60;1713975;81;21064;-78
2022/06/20 05:01:22;;;;;;;5.70;2.45;;;;;;;24.05;47.90;100677.54;1687873;84;21177;-78
2022/06/20 05:03:58;;;;;;;6.22;2.42;;;;;;;24.01;47.87;100680.20;1704751;83;22230;-78
2022/06/20 05:06:29;;;;;;;5.95;2.83;;;;;;;23.94;47.90;100677.16;1717701;82;21036;-77
2022/06/20 05:09:25;;;;;;;7.62;2.87;;;;;;;23.93;47.96;100683.86;1700916;83;21035;-78
2022/06/20 05:12:02;;;;;;;4.53;2.45;;;;;;;23.93;47.99;100678.91;1688611;83;21040;-78
2022/06/20 05:14:35;;;;;;;6.60;2.62;;;;;;;23.94;48.01;100678.54;1694819;83;21706;-78
2022/06/20 05:17:03;;;;;;;8.85;3.12;;;;;;;23.94;47.98;100672.98;1696770;83;21137;-78
2022/06/20 05:19:36;;;;;;;9.60;3.00;;;;;;;23.94;47.98;100676.34;1700534;82;21095;-79
2022/06/20 05:22:06;;;;;;;6.75;2.58;;;;;;;23.90;47.97;100672.05;1708452;81;21044;-78
2022/06/20 05:24:36;;;;;;;8.55;2.50;;;;;;;23.89;48.01;100665.47;1698741;83;21052;-78
2022/06/20 05:27:25;;;;;;;9.47;2.43;;;;;;;23.87;48.01;100668.58;1709559;82;21828;-77
2022/06/20 05:29:52;;;;;;;6.17;2.58;;;;;;;23.84;48.09;100662.90;1706298;82;21234;-78
2022/06/20 05:32:36;;;;;;;7.10;2.80;;;;;;;23.82;48.16;100663.80;1703561;83;21051;-77
2022/06/20 05:35:22;;;;;;;6.90;2.62;;;;;;;23.79;48.27;100661.14;1688379;84;21511;-79
2022/06/20 05:38:04;;;;;;;9.30;2.83;;;;;;;23.80;48.34;100655.83;1702283;83;21083;-77
2022/06/20 05:40:36;;;;;;;6.62;2.62;;;;;;;23.81;48.42;100658.00;1669441;84;21857;-77
2022/06/20 05:43:03;;;;;;;6.87;2.77;;;;;;;23.81;48.45;100658.00;1692861;83;21103;-77
2022/06/20 05:45:29;;;;;;;6.90;3.10;;;;;;;23.81;48.50;100656.04;1688447;85;21478;-78
2022/06/20 05:47:59;;;;;;;7.95;2.58;;;;;;;23.82;48.56;100659.64;1703727;82;20968;-77
2022/06/20 05:50:48;;;;;;;8.88;2.40;;;;;;;23.82;48.65;100656.28;1689370;83;21593;-78
2022/06/20 05:53:34;;;;;;;14.15;3.22;;;;;;;23.82;48.64;100659.64;1703230;81;21121;-77
2022/06/20 05:56:02;;;;;;;12.40;2.80;;;;;;;23.82;48.64;100657.67;1724445;82;21514;-79
2022/06/20 05:58:32;;;;;;;9.80;3.08;;;;;;;23.85;48.63;100660.36;1700837;83;21048;-79
2022/06/20 06:01:04;;;;;;;16.23;3.07;;;;;;;23.88;48.54;100663.27;1718948;82;21039;-78
2022/06/20 06:03:39;;;;;;;10.80;2.92;;;;;;;23.88;48.45;100658.28;1705473;83;21342;-79
2022/06/20 06:06:19;;;;;;;6.47;2.58;;;;;;;23.89;48.38;100653.75;1707644;82;21195;-80
2022/06/20 06:08:53;;;;;;;8.03;3.33;;;;;;;23.92;48.33;100649.48;1715655;82;21556;-79
2022/06/20 06:11:39;;;;;;;9.35;2.55;;;;;;;23.94;48.31;100649.94;1703476;83;21063;-78
2022/06/20 06:14:23;;;;;;;5.87;2.60;;;;;;;23.97;48.17;100646.49;1709280;83;21255;-79
2022/06/20 06:17:19;;;;;;;6.97;2.10;;;;;;;24.00;47.88;100643.02;1688315;81;21066;-79
2022/06/20 06:19:52;;;;;;;5.97;1.98;;;;;;;24.03;47.42;100640.36;1711129;82;21983;-79
2022/06/20 06:22:37;;;;;;;11.78;2.10;;;;;;;24.05;46.99;100633.08;1715755;82;21096;-80
2022/06/20 06:25:29;;;;;;;10.93;2.50;;;;;;;24.08;46.80;100640.71;1725594;82;21087;-80
2022/06/20 06:28:06;;;;;;;9.03;2.25;;;;;;;24.09;46.66;100627.06;1673722;85;21080;-78
2022/06/20 06:30:46;;;;;;;7.58;2.05;;;;;;;24.11;46.54;100615.00;1681097;84;21148;-79
2022/06/20 06:33:41;;;;;;;6.67;2.30;;;;;;;24.14;46.46;100624.84;1641458;85;21188;-78
2022/06/20 06:36:15;;;;;;;5.67;2.60;;;;;;;24.17;46.35;100617.02;1655056;86;21490;-79
2022/06/20 06:38:49;;;;;;;9.75;2.37;;;;;;;24.18;46.27;100614.47;1641246;85;21131;-78
2022/06/20 06:41:32;;;;;;;4.50;2.10;;;;;;;24.20;46.17;100613.53;1693005;83;21056;-78
2022/06/20 06:44:24;;;;;;;5.40;2.20;;;;;;;24.22;46.12;100610.66;1682113;84;21076;-80
2022/06/20 06:46:58;;;;;;;8.35;2.30;;;;;;;24.25;46.12;100607.75;1634556;86;21567;-78
2022/06/20 06:49:44;;;;;;;4.30;1.82;;;;;;;24.27;45.98;100603.48;1638714;86;21083;-78
2022/06/20 06:52:37;;;;;;;3.37;1.70;;;;;;;24.30;45.84;100602.78;1675447;82;21609;-78
2022/06/20 06:55:18;;;;;;;6.58;1.87;;;;;;;24.34;45.59;100595.94;1664513;85;21154;-79
2022/06/20 06:57:55;;;;;;;6.55;1.80;;;;;;;24.35;45.38;100599.77;1693381;83;21147;-78
2022/06/20 07:00:29;;;;;;;3.98;1.65;;;;;;;24.38;45.06;100604.62;1720793;82;21145;-78
2022/06/20 07:03:07;;;;;;;5.80;1.70;;;;;;;24.41;44.83;100599.75;1717849;82;21108;-78
2022/06/20 07:05:36;;;;;;;5.97;1.42;;;;;;;24.44;44.62;100592.70;1714953;82;21044;-78
2022/06/20 07:08:14;;;;;;;4.12;1.67;;;;;;;24.46;44.55;100602.30;1709080;82;21064;-78
2022/06/20 07:10:55;;;;;;;2.42;1.47;;;;;;;24.48;44.52;100595.02;1697576;83;21100;-78
2022/06/20 07:13:42;;;;;;;4.75;2.10;;;;;;;24.50;44.44;100597.66;1650659;84;21806;-78
2022/06/20 07:16:21;;;;;;;4.92;2.12;;;;;;;24.52;44.30;100593.97;1669256;83;21458;-79
2022/06/20 07:18:53;;;;;;;6.25;2.15;;;;;;;24.56;44.31;100592.69;1707905;83;21057;-77
2022/06/20 07:21:21;;;;;;;6.75;2.27;;;;;;;24.57;44.33;100595.09;1686560;83;21052;-79
2022/06/20 07:23:56;;;;;;;8.05;1.98;;;;;;;24.58;44.30;100592.55;1680591;84;21072;-78
2022/06/20 07:26:22;;;;;;;4.30;1.92;;;;;;;24.61;44.28;100594.42;1684750;82;21178;-79
2022/06/20 07:28:54;;;;;;;6.70;1.70;;;;;;;24.63;44.33;100589.30;1701520;82;21045;-78
2022/06/20 07:31:32;;;;;;;3.80;2.08;;;;;;;24.65;44.36;100592.56;1695722;83;21036;-78
2022/06/20 07:34:21;;;;;;;3.85;1.80;;;;;;;24.67;44.35;100584.66;1706108;82;21099;-78
2022/06/20 07:36:52;;;;;;;3.27;2.10;;;;;;;24.69;44.35;100585.95;1709015;82;20968;-78
2022/06/20 07:39:25;;;;;;;3.83;1.95;;;;;;;24.70;44.30;100586.16;1727628;81;25151;-78
2022/06/20 07:41:58;;;;;;;3.35;1.80;;;;;;;24.72;44.26;100574.69;1686846;83;21088;-78
2022/06/20 07:44:39;;;;;;;3.37;1.82;;;;;;;24.74;44.25;100577.33;1689955;83;21525;-80
2022/06/20 07:47:13;;;;;;;7.58;1.90;;;;;;;24.76;44.27;100575.60;1725791;81;21084;-78
2022/06/20 07:49:55;;;;;;;2.25;1.65;;;;;;;24.78;44.15;100569.91;1672167;83;21090;-78
2022/06/20 07:52:40;;;;;;;6.15;2.00;;;;;;;24.81;44.07;100568.41;1697090;81;21308;-79
2022/06/20 07:55:17;;;;;;;2.70;1.47;;;;;;;24.82;44.01;100567.25;1676239;82;21015;-77
2022/06/20 07:57:55;;;;;;;2.55;1.90;;;;;;;24.84;43.94;100560.73;1716938;81;21052;-78
2022/06/20 08:00:24;;;;;;;6.35;2.00;;;;;;;24.86;43.85;100566.80;1713175;81;21303;-77
2022/06/20 08:03:34;;;;;;;3.83;1.55;;;;;;;24.87;43.75;100567.02;1716706;82;21514;-77
2022/06/20 08:06:05;;;;;;;3.65;1.90;;;;;;;24.88;43.63;100565.28;1694531;82;21119;-78
2022/06/20 08:08:44;;;;;;;3.85;2.27;;;;;;;24.89;43.61;100560.53;1703918;83;28837;-78
2022/06/20 08:11:42;;;;;;;2.52;1.90;;;;;;;24.90;43.58;100560.19;1694807;82;21054;-78
2022/06/20 08:14:32;;;;;;;2.95;1.82;;;;;;;24.92;43.51;100557.03;1708670;82;21068;-80
2022/06/20 08:17:03;;;;;;;2.80;1.87;;;;;;;24.93;43.46;100555.87;1714945;83;21081;-81
2022/06/20 08:19:30;;;;;;;2.42;1.60;;;;;;;24.92;43.37;100559.81;1683558;83;21900;-77
2022/06/20 08:22:19;;;;;;;3.05;1.80;;;;;;;24.92;43.24;100555.64;1706550;82;21068;-78
2022/06/20 08:25:12;;;;;;;3.15;1.70;;;;;;;24.94;43.08;100556.92;1724261;81;21056;-77
2022/06/20 08:27:52;;;;;;;3.67;1.82;;;;;;;24.96;42.97;100557.36;1688515;83;21108;-78
2022/06/20 08:30:29;;;;;;;5.45;1.72;;;;;;;25.00;42.79;100560.25;1693823;83;21573;-78
2022/06/20 08:33:27;;;;;;;2.75;1.80;;;;;;;25.04;42.74;100552.81;1689729;83;21199;-78
2022/06/20 08:36:22;;;;;;;4.00;1.60;;;;;;;25.09;42.65;100551.75;1692853;83;21107;-78
2022/06/20 08:38:57;;;;;;;5.47;1.90;;;;;;;25.11;42.64;100554.42;1686859;84;21127;-78
2022/06/20 08:41:35;;;;;;;5.67;1.70;;;;;;;25.17;42.61;100549.39;1687425;83;21141;-78
2022/06/20 08:44:25;;;;;;;3.98;1.80;;;;;;;25.20;42.51;100552.88;1691048;83;21503;-78
2022/06/20 08:47:33;;;;;;;6.33;1.60;;;;;;;25.21;42.50;100555.87;1671370;83;21192;-77
2022/06/20 08:50:33;;;;;;;2.12;1.75;;;;;;;25.24;42.49;100553.79;1681293;84;21160;-77
2022/06/20 08:53:50;;;;;;;4.15;1.95;;;;;;;25.24;42.44;100556.58;1679267;85;21151;-78
2022/06/20 08:56:51;;;;;;;4.67;2.05;;;;;;;25.24;42.48;100557.39;1671239;84;21100;-78
2022/06/20 08:59:42;;;;;;;3.33;1.87;;;;;;;25.25;42.44;100552.02;1673649;85;21338;-78
2022/06/20 09:02:29;;;;;;;4.30;1.90;;;;;;;25.26;42.39;100545.87;1671814;85;21116;-78
2022/06/20 09:05:06;;;;;;;4.05;2.12;;;;;;;25.24;42.38;100547.64;1679087;84;21044;-78
2022/06/20 09:08:22;;;;;;;3.00;1.62;;;;;;;25.22;42.35;100545.78;1666166;85;21155;-78
2022/06/20 09:11:03;;;;;;;5.40;1.80;;;;;;;25.21;42.37;100545.55;1668282;83;21052;-78
2022/06/20 09:13:53;;;;;;;3.52;2.02;;;;;;;25.20;42.29;100547.31;1652360;83;21307;-77
2022/06/20 09:16:33;;;;;;;2.47;1.80;;;;;;;25.18;42.39;100549.63;1683113;83;21511;-79
2022/06/20 09:19:36;;;;;;;3.08;1.67;;;;;;;25.17;42.34;100543.25;1664159;84;21079;-78
2022/06/20 09:22:37;;;;;;;4.28;2.00;;;;;;;25.18;42.26;100539.88;1666974;85;21095;-79
2022/06/20 09:25:43;;;;;;;;;;;;;;;25.17;42.18;100533.50;1684898;83;21089;-80
2022/06/20 09:28:40;;;;;;;5.67;2.10;;;;;;;25.19;42.05;100537.33;1676133;83;20226;-77
2022/06/20 09:31:55;;;;;;;4.08;1.80;;;;;;;25.19;42.11;100532.58;1691042;82;21900;-77
2022/06/20 09:34:58;;;;;;;3.80;2.22;;;;;;;25.23;41.95;100535.45;1646346;85;21691;-78
2022/06/20 09:38:08;;;;;;;3.12;1.77;;;;;;;25.22;41.87;100533.83;1642056;85;21114;-80
2022/06/20 09:41:07;;;;;;;3.17;2.13;;;;;;;25.20;41.91;100527.25;1692022;82;21689;-78
2022/06/20 09:44:07;;;;;;;3.12;1.87;;;;;;;25.20;41.97;100525.04;1689945;82;21127;-78
2022/06/20 09:46:41;;;;;;;3.00;2.10;;;;;;;25.18;42.23;100527.35;1695141;82;22105;-78
2022/06/20 09:49:36;;;;;;;4.55;2.33;;;;;;;25.16;42.46;100524.95;1730344;81;21035;-78
2022/06/20 09:52:34;;;;;;;4.22;2.22;;;;;;;25.15;42.35;100517.75;1698633;83;21649;-78
2022/06/20 09:55:30;;;;;;;3.77;2.20;;;;;;;25.14;42.48;100516.70;1703592;83;21123;-78
2022/06/20 09:58:14;;;;;;;5.70;2.30;;;;;;;25.14;42.42;100511.13;1689313;83;21076;-78
2022/06/20 10:01:10;;;;;;;3.25;2.27;;;;;;;25.13;42.40;100501.97;1649570;85;21068;-77
2022/06/20 10:03:44;;;;;;;3.10;2.20;;;;;;;25.13;42.54;100502.55;1650993;82;21076;-78
2022/06/20 10:06:48;;;;;;;3.25;1.85;;;;;;;25.13;42.54;100504.75;1682431;83;22613;-78
2022/06/20 10:09:49;;;;;;;4.47;2.20;;;;;;;25.13;42.29;100503.36;1709886;82;21016;-80
2022/06/20 10:12:39;;;;;;;3.98;1.80;;;;;;;25.14;42.34;100501.39;1690400;83;21063;-79
2022/06/20 10:15:38;;;;;;;3.55;2.12;;;;;;;25.13;42.31;100490.84;1710845;82;21292;-78
2022/06/20 10:18:30;;;;;;;8.38;2.25;;;;;;;25.14;42.25;100491.07;1722220;81;21601;-80
2022/06/20 10:21:08;;;;;;;3.42;2.12;;;;;;;25.14;42.25;100484.11;1709633;82;21085;-78
2022/06/20 10:23:52;;;;;;;2.62;1.70;;;;;;;25.18;42.07;100482.23;1712819;81;21093;-79
2022/06/20 10:26:51;;;;;;;4.17;2.17;;;;;;;25.21;42.04;100473.16;1715018;82;22144;-79
2022/06/20 10:29:30;;;;;;;3.08;1.70;;;;;;;25.21;42.04;100480.12;1686645;82;21232;-79
2022/06/20 10:32:20;;;;;;;3.92;1.80;;;;;;;25.21;42.12;100473.16;1691961;83;21170;-78
2022/06/20 10:35:19;;;;;;;2.57;1.63;;;;;;;25.22;41.97;100476.17;1702952;82;21109;-78
2022/06/20 10:38:11;;;;;;;2.62;1.77;;;;;;;25.23;42.01;100477.80;1722921;82;21042;-79
2022/06/20 10:40:57;;;;;;;4.35;1.90;;;;;;;25.24;41.98;100478.61;1698410;82;21083;-79
2022/06/20 10:43:49;;;;;;;4.47;1.85;;;;;;;25.23;41.97;100473.63;1709735;81;22323;-79
2022/06/20 10:46:36;;;;;;;4.00;1.95;;;;;;;25.24;41.79;100472.47;1718217;82;21060;-80
2022/06/20 10:49:41;;;;;;;3.80;2.12;;;;;;;25.25;41.72;100465.70;1703736;81;21060;-79
2022/06/20 10:52:49;;;;;;;2.55;1.72;;;;;;;25.24;41.75;100466.89;1710167;83;21021;-78
2022/06/20 10:55:48;;;;;;;3.30;1.90;;;;;;;25.25;41.70;100462.92;1702291;82;21045;-79
2022/06/20 10:58:47;;;;;;;2.85;2.08;;;;;;;25.25;41.81;100459.35;1693779;83;21318;-79
2022/06/20 11:01:54;;;;;;;3.75;1.82;;;;;;;25.22;42.02;100459.47;1709639;83;21090;-79
2022/06/20 11:04:47;;;;;;;4.17;2.08;;;;;;;25.24;41.82;100459.94;1704686;81;21640;-79
2022/06/20 11:07:39;;;;;;;4.45;2.25;;;;;;;25.27;41.71;100451.44;1688277;84;21522;-78
2022/06/20 11:10:29;;;;;;;2.75;1.85;;;;;;;25.27;41.63;100448.08;1694392;81;21085;-78
2022/06/20 11:13:16;;;;;;;3.30;1.77;;;;;;;25.26;41.57;100445.05;1683817;83;21876;-79
2022/06/20 11:16:06;;;;;;;2.30;1.80;;;;;;;25.27;41.62;100450.05;1708683;83;21138;-79
2022/06/20 11:19:02;;;;;;;2.40;1.98;;;;;;;25.28;41.62;100439.14;1665624;81;21132;-78
2022/06/20 11:21:56;;;;;;;4.33;1.95;;;;;;;25.26;41.65;100428.35;1684746;82;20968;-78
2022/06/20 11:24:52;;;;;;;3.67;1.65;;;;;;;25.35;41.41;100426.20;1713227;82;21544;-78
2022/06/20 11:27:30;;;;;;;3.33;1.90;;;;;;;25.45;41.15;100417.32;1709870;82;21146;-79
2022/06/20 11:30:24;;;;;;;2.80;2.00;;;;;;;25.45;41.34;100412.33;1706936;82;21027;-79
2022/06/20 11:34:00;;;;;;;3.27;1.95;;;;;;;25.41;41.71;100409.46;1703319;83;21092;-79
2022/06/20 11:36:06;;;;;;;2.95;2.00;;;;;;;25.39;41.97;100402.62;1684463;82;21103;-78
2022/06/20 11:38:45;;;;;;;3.65;1.70;;;;;;;25.37;42.15;100398.00;1689642;83;21155;-79
2022/06/20 11:41:26;;;;;;;3.10;2.00;;;;;;;25.34;42.29;100396.73;1701526;83;21066;-79
2022/06/20 11:44:30;;;;;;;2.15;1.72;;;;;;;25.33;42.43;100391.54;1712711;83;21112;-80
2022/06/20 11:47:40;;;;;;;2.27;1.70;;;;;;;25.31;42.51;100384.92;1681367;84;21652;-79
2022/06/20 11:50:42;;;;;;;3.77;2.10;;;;;;;25.29;42.52;100387.25;1717834;82;21036;-81
2022/06/20 11:53:29;;;;;;;3.33;1.90;;;;;;;25.27;42.54;100377.07;1739596;82;21522;-80
2022/06/20 11:56:34;;;;;;;2.30;1.62;;;;;;;25.28;42.31;100376.48;1703385;83;21160;-78
2022/06/20 11:59:45;;;;;;;2.45;1.67;;;;;;;25.29;42.19;100373.33;1671659;85;21597;-78
2022/06/20 12:02:51;;;;;;;3.42;1.77;;;;;;;25.29;42.33;100369.77;1664030;85;21057;-79
2022/06/20 12:05:32;;;;;;;2.40;1.80;;;;;;;25.29;42.29;100368.38;1635872;87;21073;-78
2022/06/20 12:08:10;;;;;;;2.55;1.90;;;;;;;25.35;42.15;100370.51;1620558;87;21108;-79
2022/06/20 12:10:52;;;;;;;4.22;1.98;;;;;;;25.35;42.13;100362.73;1676706;83;39371;-80
2022/06/20 12:13:51;;;;;;;4.80;2.02;;;;;;;25.36;42.08;100369.34;1719006;81;21044;-79
2022/06/20 12:17:07;;;;;;;2.65;1.95;;;;;;;25.38;41.90;100366.99;1710177;82;21067;-79
2022/06/20 12:25:41;;;;;;;2.70;1.90;;;;;;;25.43;41.53;100354.77;1703585;83;21196;-79
2022/06/20 12:28:18;;;;;;;2.08;1.80;;;;;;;25.44;41.49;100351.64;1717459;81;21636;-78
2022/06/20 12:30:47;;;;;;;2.55;1.90;;;;;;;25.43;41.40;100352.80;1723320;82;21065;-78
2022/06/20 12:33:14;;;;;;;2.10;1.90;;;;;;;25.43;41.43;100351.41;1717169;82;21049;-78
2022/06/20 12:35:55;;;;;;;2.87;1.67;;;;;;;25.43;41.56;100346.42;1691563;84;21067;-78
2022/06/20 12:38:45;;;;;;;4.40;2.27;;;;;;;25.40;41.56;100346.56;1690544;83;22221;-78